Time;durP1;ratioP1;P1;durP2;ratioP2;P2;SDS_P1;SDS_P2;PMS_P1;PMS_P2;Temp;Humidity;BMP_temperature;BMP_pressure;BME280_temperature;BME280_humidity;BME280_pressure;Samples;Min_cycle;Max_cycle;Signal;HPM_P1;HPM_P2
2023/08/02 00:00:23;;;;;;;5.38;1.73;;;16.30;99.90;;;;;;5038664;28;20029;-61
2023/08/02 00:02:49;;;;;;;11.05;1.70;;;16.40;99.90;;;;;;5034010;28;20473;-61
2023/08/02 00:05:14;;;;;;;5.78;1.50;;;16.40;99.90;;;;;;5037447;28;20102;-62
2023/08/02 00:07:40;;;;;;;12.18;2.08;;;16.40;99.90;;;;;;5032553;28;20092;-61
2023/08/02 00:10:06;;;;;;;5.53;1.63;;;16.50;99.90;;;;;;5030225;28;20037;-61
2023/08/02 00:12:31;;;;;;;2.67;1.40;;;16.40;99.90;;;;;;5035344;28;20029;-60
2023/08/02 00:14:57;;;;;;;6.43;1.90;;;16.40;99.90;;;;;;5033593;28;20090;-61
2023/08/02 00:17:22;;;;;;;10.15;1.88;;;16.40;99.90;;;;;;5037302;28;20033;-62
2023/08/02 00:19:48;;;;;;;5.80;1.63;;;16.40;99.90;;;;;;5034356;28;20079;-62
2023/08/02 00:22:13;;;;;;;5.32;1.60;;;16.40;99.90;;;;;;5036264;28;20043;-63
2023/08/02 00:24:39;;;;;;;5.25;1.50;;;16.40;99.90;;;;;;5038573;28;20495;-62
2023/08/02 00:27:04;;;;;;;7.45;1.80;;;16.40;99.90;;;;;;5034949;28;20031;-62
2023/08/02 00:29:30;;;;;;;6.80;2.10;;;16.40;99.90;;;;;;5033065;28;20025;-61
2023/08/02 00:31:55;;;;;;;9.32;2.03;;;16.40;99.90;;;;;;5032441;28;20109;-62
2023/08/02 00:34:21;;;;;;;4.93;1.80;;;16.40;99.90;;;;;;5035694;28;20108;-62
2023/08/02 00:36:46;;;;;;;9.68;2.65;;;16.40;99.90;;;;;;5033661;28;20041;-62
2023/08/02 00:39:12;;;;;;;8.45;2.55;;;16.40;99.90;;;;;;5031335;28;20036;-62
2023/08/02 00:41:37;;;;;;;6.47;1.92;;;16.40;99.90;;;;;;5039988;28;20025;-63
2023/08/02 00:44:03;;;;;;;5.50;2.00;;;16.40;99.90;;;;;;5033183;28;20026;-61
2023/08/02 00:46:29;;;;;;;3.15;2.00;;;16.40;99.90;;;;;;5035593;28;20037;-62
2023/08/02 00:48:54;;;;;;;4.97;1.83;;;16.40;99.90;;;;;;5031641;28;20041;-62
2023/08/02 00:51:20;;;;;;;8.05;1.70;;;16.40;99.90;;;;;;5040073;28;20037;-62
2023/08/02 00:53:46;;;;;;;7.03;2.42;;;16.40;99.90;;;;;;5033853;28;20028;-63
2023/08/02 00:56:15;;;;;;;5.38;1.77;;;16.40;99.90;;;;;;5038638;28;20400;-61
2023/08/02 00:58:41;;;;;;;9.32;2.05;;;16.40;99.90;;;;;;5036624;28;20017;-62
2023/08/02 01:01:07;;;;;;;5.75;2.10;;;16.40;99.90;;;;;;5037200;28;20100;-63
2023/08/02 01:03:41;;;;;;;5.18;1.83;;;16.40;99.90;;;;;;5039757;28;20029;-62
2023/08/02 01:06:21;;;;;;;7.30;2.17;;;16.40;99.90;;;;;;5039067;28;20073;-60
2023/08/02 01:08:53;;;;;;;7.30;2.13;;;16.40;99.90;;;;;;5032008;28;20283;-62
2023/08/02 01:11:31;;;;;;;10.02;1.70;;;16.30;99.90;;;;;;5052393;28;20064;-62
2023/08/02 01:13:58;;;;;;;6.20;1.80;;;16.30;99.90;;;;;;5032743;28;20030;-62
2023/08/02 01:16:24;;;;;;;4.82;1.45;;;16.30;99.90;;;;;;5041810;28;20397;-59
2023/08/02 01:18:50;;;;;;;3.90;1.52;;;16.30;99.90;;;;;;5035997;28;20017;-61
2023/08/02 01:21:16;;;;;;;3.95;1.63;;;16.30;99.90;;;;;;5041540;28;20025;-62
2023/08/02 01:23:42;;;;;;;8.00;1.83;;;16.30;99.90;;;;;;5032424;28;20082;-62
2023/08/02 01:26:08;;;;;;;6.60;1.65;;;16.30;99.90;;;;;;5036645;28;20029;-62
2023/08/02 01:28:38;;;;;;;6.60;2.20;;;16.30;99.90;;;;;;5039429;28;20485;-62
2023/08/02 01:31:05;;;;;;;6.07;2.35;;;16.30;99.90;;;;;;5037236;28;20034;-62
2023/08/02 01:33:38;;;;;;;5.88;2.70;;;16.30;99.90;;;;;;5034610;28;20529;-62
2023/08/02 01:36:04;;;;;;;5.90;2.50;;;16.30;99.90;;;;;;5038859;28;20018;-62
2023/08/02 01:38:31;;;;;;;5.35;2.13;;;16.30;99.90;;;;;;5033801;28;20257;-61
2023/08/02 01:40:56;;;;;;;6.30;2.70;;;16.40;99.90;;;;;;5038303;28;20032;-62
2023/08/02 01:43:22;;;;;;;11.27;3.13;;;16.40;99.90;;;;;;5039754;28;20029;-61
2023/08/02 01:45:47;;;;;;;5.97;2.35;;;16.40;99.90;;;;;;5031248;28;20037;-61
2023/08/02 01:48:13;;;;;;;6.15;2.47;;;16.30;99.90;;;;;;5032038;28;20109;-61
2023/08/02 01:50:38;;;;;;;8.20;2.88;;;16.30;99.90;;;;;;5032931;28;20035;-62
2023/08/02 01:53:04;;;;;;;11.20;2.70;;;16.40;99.90;;;;;;5030112;28;20378;-62
2023/08/02 01:55:29;;;;;;;6.65;2.20;;;16.40;99.90;;;;;;5034846;28;20017;-62
2023/08/02 01:57:55;;;;;;;6.57;2.53;;;16.40;99.90;;;;;;5040026;28;20043;-62
2023/08/02 02:00:20;;;;;;;8.75;2.58;;;16.40;99.90;;;;;;5030642;28;20033;-61
2023/08/02 02:02:46;;;;;;;7.43;2.28;;;16.40;99.90;;;;;;5036357;28;20027;-61
2023/08/02 02:05:11;;;;;;;9.48;2.10;;;16.40;99.90;;;;;;5031598;28;20098;-62
2023/08/02 02:07:37;;;;;;;6.97;1.95;;;16.40;99.90;;;;;;5034933;28;20033;-62
2023/08/02 02:10:03;;;;;;;8.82;1.75;;;16.50;99.90;;;;;;5035382;28;20017;-60
2023/08/02 02:12:28;;;;;;;6.82;2.35;;;16.60;99.90;;;;;;5040545;28;20033;-63
2023/08/02 02:14:54;;;;;;;5.25;2.65;;;16.60;99.90;;;;;;5033925;28;20025;-60
2023/08/02 02:17:19;;;;;;;4.97;1.63;;;16.70;99.90;;;;;;5039084;28;20405;-62
2023/08/02 02:19:45;;;;;;;4.60;1.80;;;16.60;99.90;;;;;;5030819;28;20033;-62
2023/08/02 02:22:12;;;;;;;6.43;2.45;;;16.60;99.90;;;;;;5027987;28;20025;-62
2023/08/02 02:24:37;;;;;;;6.22;2.88;;;16.50;99.90;;;;;;5035074;28;20048;-60
2023/08/02 02:27:03;;;;;;;10.75;3.88;;;16.60;99.90;;;;;;5030429;28;20502;-62
2023/08/02 02:29:28;;;;;;;10.30;2.70;;;16.50;99.90;;;;;;5033906;28;20090;-61
2023/08/02 02:31:54;;;;;;;7.47;3.03;;;16.50;99.90;;;;;;5035154;28;20461;-62
2023/08/02 02:34:19;;;;;;;8.85;3.47;;;16.40;99.90;;;;;;5028514;28;20033;-61
2023/08/02 02:36:46;;;;;;;12.38;2.85;;;16.40;99.90;;;;;;5032047;28;20062;-62
2023/08/02 02:39:11;;;;;;;5.95;2.60;;;16.30;99.90;;;;;;5028114;28;20026;-63
2023/08/02 02:41:37;;;;;;;7.50;2.38;;;16.30;99.90;;;;;;5034042;28;20105;-62
2023/08/02 02:44:02;;;;;;;4.30;2.00;;;16.30;99.90;;;;;;5031601;28;20073;-62
2023/08/02 02:46:28;;;;;;;4.13;1.95;;;16.30;99.90;;;;;;5033630;28;20033;-62
2023/08/02 02:48:53;;;;;;;3.13;2.05;;;16.20;99.90;;;;;;5032978;28;20056;-62
2023/08/02 02:51:19;;;;;;;6.28;1.98;;;16.20;99.90;;;;;;5030935;28;20034;-62
2023/08/02 02:53:44;;;;;;;2.92;1.35;;;16.20;99.90;;;;;;5030425;28;20590;-62
2023/08/02 02:56:10;;;;;;;5.03;1.67;;;16.20;99.90;;;;;;5031450;28;20722;-63
2023/08/02 02:58:35;;;;;;;3.85;1.80;;;16.20;99.90;;;;;;5034384;28;20055;-62
2023/08/02 03:01:01;;;;;;;8.63;1.83;;;16.20;99.90;;;;;;5031889;28;20086;-61
2023/08/02 03:03:27;;;;;;;4.90;1.83;;;16.20;99.90;;;;;;5033093;28;20034;-63
2023/08/02 03:05:54;;;;;;;5.78;1.60;;;16.20;99.90;;;;;;5031220;28;20025;-63
2023/08/02 03:08:19;;;;;;;4.50;2.10;;;16.20;99.90;;;;;;5032468;28;20021;-62
2023/08/02 03:10:45;;;;;;;5.38;1.75;;;16.20;99.90;;;;;;5036121;28;20105;-61
2023/08/02 03:13:10;;;;;;;5.65;1.90;;;16.20;99.90;;;;;;5042241;28;20037;-63
2023/08/02 03:15:36;;;;;;;8.13;2.03;;;16.20;99.90;;;;;;5040300;28;20041;-61
2023/08/02 03:18:02;;;;;;;3.63;2.20;;;16.10;99.90;;;;;;5042569;28;20116;-62
2023/08/02 03:20:27;;;;;;;8.10;2.47;;;16.10;99.90;;;;;;5039423;28;20030;-62
2023/08/02 03:22:53;;;;;;;9.13;2.08;;;16.10;99.90;;;;;;5034055;28;20025;-63
2023/08/02 03:25:18;;;;;;;4.95;2.30;;;16.10;99.90;;;;;;5044992;28;20554;-61
2023/08/02 03:27:44;;;;;;;6.05;2.17;;;16.10;99.90;;;;;;5042269;28;20029;-60
2023/08/02 03:30:10;;;;;;;6.15;2.38;;;16.10;99.90;;;;;;5028853;28;20034;-62
2023/08/02 03:32:35;;;;;;;4.82;2.15;;;16.10;99.90;;;;;;5043991;28;20033;-62
2023/08/02 03:35:01;;;;;;;7.32;2.97;;;16.10;99.90;;;;;;5026532;28;20033;-61
2023/08/02 03:37:26;;;;;;;6.07;2.30;;;16.10;99.90;;;;;;5038848;28;20396;-60
2023/08/02 03:39:52;;;;;;;9.10;2.60;;;16.10;99.90;;;;;;5041354;28;20025;-60
2023/08/02 03:42:17;;;;;;;8.35;2.63;;;16.10;99.90;;;;;;5040529;28;20036;-61
2023/08/02 03:44:43;;;;;;;5.78;3.10;;;16.10;99.90;;;;;;5038991;28;20018;-61
2023/08/02 03:47:08;;;;;;;5.63;2.80;;;16.10;99.90;;;;;;5027901;28;20064;-61
2023/08/02 03:49:35;;;;;;;8.30;2.80;;;16.10;99.90;;;;;;5025851;28;20032;-61
2023/08/02 03:52:02;;;;;;;7.47;3.13;;;16.10;99.90;;;;;;5046408;28;20033;-61
2023/08/02 03:54:27;;;;;;;4.15;2.00;;;16.10;99.90;;;;;;5038931;28;20088;-60
2023/08/02 03:56:53;;;;;;;7.15;2.60;;;16.10;99.90;;;;;;5039339;28;20473;-61
2023/08/02 03:59:18;;;;;;;7.18;2.35;;;16.10;99.90;;;;;;5029978;28;20026;-61
2023/08/02 04:01:44;;;;;;;5.00;2.63;;;16.10;99.90;;;;;;5032659;28;20037;-61
2023/08/02 04:04:09;;;;;;;5.72;3.00;;;16.10;99.90;;;;;;5029923;28;20506;-61
2023/08/02 04:06:35;;;;;;;8.38;2.45;;;16.20;99.90;;;;;;5039138;28;20035;-61
2023/08/02 04:09:01;;;;;;;5.45;2.90;;;16.10;99.90;;;;;;5036048;28;20500;-62
2023/08/02 04:11:26;;;;;;;9.13;3.03;;;16.10;99.90;;;;;;5043898;28;20037;-61
2023/08/02 04:13:52;;;;;;;8.35;3.08;;;16.20;99.90;;;;;;5033799;28;20034;-60
2023/08/02 04:16:17;;;;;;;8.63;4.10;;;16.20;99.90;;;;;;5034221;28;20029;-61
2023/08/02 04:18:43;;;;;;;8.68;3.38;;;16.20;99.90;;;;;;5032507;28;20029;-61
2023/08/02 04:21:09;;;;;;;10.85;3.85;;;16.30;99.90;;;;;;5039667;28;20101;-61
2023/08/02 04:23:34;;;;;;;8.23;3.53;;;16.30;99.90;;;;;;5035564;28;20037;-62
2023/08/02 04:26:07;;;;;;;8.15;3.53;;;16.20;99.90;;;;;;5032437;28;20279;-61
2023/08/02 04:28:33;;;;;;;6.13;3.47;;;16.20;99.90;;;;;;5036113;28;20055;-62
2023/08/02 04:30:58;;;;;;;10.80;3.40;;;16.20;99.90;;;;;;5029401;28;20098;-61
2023/08/02 04:33:24;;;;;;;9.02;3.60;;;16.20;99.90;;;;;;5036442;28;20086;-61
2023/08/02 04:35:49;;;;;;;7.40;3.15;;;16.20;99.90;;;;;;5034656;28;20391;-61
2023/08/02 04:38:15;;;;;;;7.78;3.25;;;16.20;99.90;;;;;;5035953;28;20422;-60
2023/08/02 04:40:41;;;;;;;6.97;3.15;;;16.20;99.90;;;;;;5024552;28;20030;-61
2023/08/02 04:43:06;;;;;;;5.90;3.35;;;16.20;99.90;;;;;;5030541;28;20112;-61
2023/08/02 04:45:32;;;;;;;11.48;4.63;;;16.20;99.90;;;;;;5030290;28;20032;-61
2023/08/02 04:47:57;;;;;;;7.53;3.22;;;16.20;99.90;;;;;;5029904;28;20096;-61
2023/08/02 04:50:23;;;;;;;11.70;3.70;;;16.20;99.90;;;;;;5035354;28;20534;-61
2023/08/02 04:52:48;;;;;;;6.97;3.42;;;16.20;99.90;;;;;;5038714;28;20450;-61
2023/08/02 04:55:15;;;;;;;10.60;3.85;;;16.10;99.90;;;;;;5032188;28;20050;-61
2023/08/02 04:57:40;;;;;;;6.10;3.35;;;16.20;99.90;;;;;;5029886;28;20104;-59
2023/08/02 05:00:07;;;;;;;12.27;4.55;;;16.20;99.90;;;;;;5030441;28;20101;-58
2023/08/02 05:02:36;;;;;;;9.77;4.43;;;16.20;99.90;;;;;;5044796;28;20022;-57
2023/08/02 05:05:04;;;;;;;12.23;4.22;;;16.30;99.90;;;;;;5032701;28;20116;-57
2023/08/02 05:07:33;;;;;;;6.10;3.50;;;16.30;99.90;;;;;;5026355;28;20437;-56
2023/08/02 05:10:03;;;;;;;9.45;3.83;;;16.30;99.90;;;;;;5027134;28;20096;-56
2023/08/02 05:12:30;;;;;;;12.70;4.10;;;16.20;99.90;;;;;;5025880;28;20124;-59
2023/08/02 05:14:58;;;;;;;9.70;4.15;;;16.30;99.90;;;;;;4991968;28;1057808;-56
2023/08/02 05:17:23;;;;;;;12.80;4.43;;;16.30;99.90;;;;;;5031672;28;20109;-58
2023/08/02 05:19:49;;;;;;;9.00;4.38;;;16.30;99.90;;;;;;5033843;28;20037;-57
2023/08/02 05:22:14;;;;;;;13.00;5.03;;;16.30;99.90;;;;;;5027880;28;20040;-57
2023/08/02 05:24:40;;;;;;;10.32;4.20;;;16.30;99.90;;;;;;5038201;28;20096;-57
2023/08/02 05:27:05;;;;;;;13.90;5.00;;;16.40;99.90;;;;;;5030878;28;20493;-58
2023/08/02 05:29:31;;;;;;;8.52;4.65;;;16.40;99.90;;;;;;5038895;28;20092;-58
2023/08/02 05:31:56;;;;;;;10.50;4.32;;;16.40;99.90;;;;;;5032167;28;20026;-56
2023/08/02 05:34:22;;;;;;;8.55;4.55;;;16.50;99.90;;;;;;5035833;28;20034;-58
2023/08/02 05:36:47;;;;;;;19.02;4.35;;;16.40;99.90;;;;;;5037978;28;20440;-56
2023/08/02 05:39:13;;;;;;;11.27;4.70;;;16.50;99.90;;;;;;5035011;28;20025;-57
2023/08/02 05:41:38;;;;;;;10.00;4.63;;;16.50;99.90;;;;;;5036618;28;20017;-58
2023/08/02 05:44:04;;;;;;;18.02;5.30;;;16.60;99.90;;;;;;5039762;28;20027;-54
2023/08/02 05:46:30;;;;;;;8.38;4.50;;;16.60;99.90;;;;;;5032914;28;20096;-58
2023/08/02 05:48:55;;;;;;;9.90;4.30;;;16.60;99.90;;;;;;5034672;28;20511;-54
2023/08/02 05:51:22;;;;;;;11.27;5.00;;;16.60;99.90;;;;;;5031755;28;20025;-59
2023/08/02 05:53:48;;;;;;;5.15;4.10;;;16.70;99.90;;;;;;5040992;28;20443;-55
2023/08/02 05:56:14;;;;;;;10.40;4.25;;;16.70;99.90;;;;;;5028206;28;20469;-57
2023/08/02 05:58:39;;;;;;;11.65;4.80;;;16.80;99.90;;;;;;5039589;28;20027;-57
2023/08/02 06:01:05;;;;;;;8.48;4.43;;;16.80;99.90;;;;;;5032539;28;20031;-58
2023/08/02 06:03:30;;;;;;;12.98;4.80;;;16.70;99.90;;;;;;5035272;28;20036;-58
2023/08/02 06:05:56;;;;;;;9.63;4.60;;;16.80;99.90;;;;;;5031778;28;20028;-58
2023/08/02 06:08:21;;;;;;;9.07;5.22;;;16.80;99.90;;;;;;5036490;28;20036;-57
2023/08/02 06:10:47;;;;;;;9.48;5.28;;;16.80;99.90;;;;;;5032481;28;20060;-58
2023/08/02 06:13:12;;;;;;;10.25;4.80;;;16.70;99.90;;;;;;5032031;28;20545;-57
2023/08/02 06:15:38;;;;;;;8.93;4.68;;;16.70;99.90;;;;;;5028569;28;20116;-59
2023/08/02 06:18:04;;;;;;;12.70;5.80;;;16.70;99.90;;;;;;5040027;28;20046;-58
2023/08/02 06:20:29;;;;;;;8.93;5.25;;;16.70;99.90;;;;;;5034229;28;20389;-58
2023/08/02 06:22:55;;;;;;;12.55;5.70;;;16.70;99.90;;;;;;5031685;28;20078;-59
2023/08/02 06:25:20;;;;;;;11.25;5.45;;;16.70;99.90;;;;;;5034584;28;20068;-58
2023/08/02 06:27:47;;;;;;;16.58;6.00;;;16.70;99.90;;;;;;5033831;28;20108;-58
2023/08/02 06:30:13;;;;;;;12.02;5.78;;;16.60;99.90;;;;;;5035113;28;20547;-57
2023/08/02 06:32:39;;;;;;;17.75;5.85;;;16.70;99.90;;;;;;5035709;28;20025;-58
2023/08/02 06:35:05;;;;;;;10.15;5.53;;;16.70;99.90;;;;;;5034251;28;20028;-58
2023/08/02 06:37:30;;;;;;;8.55;4.53;;;16.70;99.90;;;;;;5035201;28;20100;-58
2023/08/02 06:39:56;;;;;;;15.80;5.95;;;16.70;99.90;;;;;;5035657;28;20025;-57
2023/08/02 06:42:21;;;;;;;23.33;6.78;;;16.60;99.90;;;;;;5036460;28;20030;-58
2023/08/02 06:44:47;;;;;;;10.00;5.45;;;16.60;99.90;;;;;;5037665;28;20025;-58
2023/08/02 06:47:12;;;;;;;18.45;6.75;;;16.60;99.90;;;;;;5031175;28;20064;-59
2023/08/02 06:49:38;;;;;;;20.27;6.85;;;16.60;99.90;;;;;;5037131;28;20059;-58
2023/08/02 06:52:04;;;;;;;10.43;5.47;;;16.60;99.90;;;;;;5031316;28;20037;-55
2023/08/02 06:54:29;;;;;;;14.50;6.13;;;16.60;99.90;;;;;;5036853;28;20025;-58
2023/08/02 06:56:55;;;;;;;12.65;6.05;;;16.70;99.90;;;;;;5038889;28;20036;-58
2023/08/02 06:59:20;;;;;;;14.20;6.25;;;16.70;99.90;;;;;;5036559;28;20039;-59
2023/08/02 07:01:46;;;;;;;11.98;5.60;;;16.70;99.90;;;;;;5035153;28;20631;-57
2023/08/02 07:04:11;;;;;;;11.05;5.57;;;16.80;99.90;;;;;;5029727;28;20553;-57
2023/08/02 07:06:37;;;;;;;12.85;5.57;;;16.80;99.90;;;;;;5030297;28;20029;-58
2023/08/02 07:09:03;;;;;;;12.50;5.43;;;16.80;99.90;;;;;;5038514;28;20052;-55
2023/08/02 07:11:28;;;;;;;13.98;6.38;;;16.90;99.90;;;;;;5028516;28;20022;-58
2023/08/02 07:13:54;;;;;;;13.05;5.65;;;16.80;99.90;;;;;;5035222;28;20115;-56
2023/08/02 07:16:19;;;;;;;11.10;5.93;;;16.90;99.90;;;;;;5024440;28;20109;-58
2023/08/02 07:18:45;;;;;;;13.35;6.65;;;16.90;99.90;;;;;;5035702;28;20633;-55
2023/08/02 07:21:10;;;;;;;21.95;7.13;;;17.00;99.90;;;;;;5031832;28;20025;-57
2023/08/02 07:23:36;;;;;;;11.50;6.00;;;17.10;99.90;;;;;;5038313;28;20029;-57
2023/08/02 07:26:04;;;;;;;13.90;6.57;;;17.20;99.90;;;;;;5023385;28;20029;-58
2023/08/02 07:28:30;;;;;;;12.73;7.55;;;17.20;99.90;;;;;;5030638;28;20477;-57
2023/08/02 07:31:12;;;;;;;11.60;7.05;;;17.10;99.90;;;;;;5031875;28;20051;-53
2023/08/02 07:33:37;;;;;;;11.93;7.32;;;17.20;99.90;;;;;;5026754;28;20084;-57
2023/08/02 07:36:04;;;;;;;12.60;7.70;;;17.30;99.90;;;;;;5034483;28;20040;-58
2023/08/02 07:38:30;;;;;;;19.15;7.63;;;17.40;99.90;;;;;;5032845;28;20164;-58
2023/08/02 07:40:56;;;;;;;13.25;7.85;;;17.40;99.90;;;;;;5035827;28;20100;-55
2023/08/02 07:43:22;;;;;;;11.40;7.82;;;17.40;99.90;;;;;;5038255;28;20057;-59
2023/08/02 07:45:47;;;;;;;14.65;8.35;;;17.40;99.90;;;;;;5031132;28;20040;-58
2023/08/02 07:48:14;;;;;;;14.27;8.75;;;17.50;99.90;;;;;;5033784;28;20099;-57
2023/08/02 07:50:39;;;;;;;14.48;8.35;;;17.60;99.90;;;;;;5025342;28;20507;-58
2023/08/02 07:53:05;;;;;;;19.25;8.57;;;17.70;99.90;;;;;;5034622;28;20049;-59
2023/08/02 07:55:31;;;;;;;13.88;8.52;;;17.70;99.90;;;;;;5027542;28;20060;-59
2023/08/02 07:57:56;;;;;;;13.60;8.07;;;17.90;99.90;;;;;;5044991;28;20075;-59
2023/08/02 08:00:22;;;;;;;9.65;7.38;;;17.90;99.90;;;;;;5029120;28;20021;-55
2023/08/02 08:02:48;;;;;;;19.40;8.30;;;17.90;99.90;;;;;;5042608;28;20017;-59
2023/08/02 08:05:13;;;;;;;10.00;7.43;;;17.90;99.90;;;;;;5030912;28;20038;-56
2023/08/02 08:07:39;;;;;;;16.33;8.48;;;17.90;99.90;;;;;;5030352;28;20026;-58
2023/08/02 08:10:05;;;;;;;12.13;7.05;;;18.10;99.90;;;;;;5035686;28;20025;-58
2023/08/02 08:12:30;;;;;;;14.55;7.18;;;18.20;99.90;;;;;;5036130;28;20048;-59
2023/08/02 08:14:56;;;;;;;14.27;7.03;;;18.20;99.90;;;;;;5033541;28;20079;-58
2023/08/02 08:17:21;;;;;;;12.40;6.05;;;18.30;99.90;;;;;;5041169;28;20086;-58
2023/08/02 08:19:48;;;;;;;8.35;5.40;;;18.30;99.90;;;;;;5041255;28;20017;-56
2023/08/02 08:22:15;;;;;;;10.93;6.82;;;18.40;99.90;;;;;;5024246;28;20030;-56
2023/08/02 08:24:40;;;;;;;9.35;4.97;;;18.50;99.90;;;;;;5036293;28;20017;-59
2023/08/02 08:27:06;;;;;;;5.07;4.32;;;18.50;99.90;;;;;;5027098;28;20087;-57
2023/08/02 08:29:31;;;;;;;5.60;3.92;;;18.50;99.90;;;;;;5033069;28;20044;-59
2023/08/02 08:31:57;;;;;;;7.30;4.18;;;18.60;99.90;;;;;;5034682;28;20042;-57
2023/08/02 08:34:22;;;;;;;6.63;3.67;;;18.50;99.90;;;;;;5033690;28;20045;-56
2023/08/02 08:36:48;;;;;;;11.15;4.43;;;18.60;99.90;;;;;;5032671;28;20025;-56
2023/08/02 08:39:13;;;;;;;86.25;11.27;;;18.50;99.90;;;;;;5040147;28;20026;-57
2023/08/02 08:41:39;;;;;;;5.30;3.58;;;18.50;99.90;;;;;;5034884;28;20021;-59
2023/08/02 08:44:05;;;;;;;6.70;3.35;;;18.40;99.90;;;;;;5041255;28;20053;-59
2023/08/02 08:46:34;;;;;;;48.55;7.05;;;18.40;99.90;;;;;;5031449;28;20032;-59
2023/08/02 08:49:00;;;;;;;6.53;3.42;;;18.30;99.90;;;;;;5033626;28;20029;-59
2023/08/02 08:51:27;;;;;;;4.13;3.08;;;18.20;99.90;;;;;;5032722;28;20107;-58
2023/08/02 08:53:54;;;;;;;5.90;2.85;;;18.20;99.90;;;;;;5033114;28;20028;-60
2023/08/02 08:56:26;;;;;;;11.25;3.50;;;18.20;99.90;;;;;;5028316;28;20043;-58
2023/08/02 08:58:52;;;;;;;9.13;2.58;;;18.20;99.90;;;;;;5022784;28;20538;-58
2023/08/02 09:01:18;;;;;;;10.13;3.60;;;18.20;99.90;;;;;;5025165;28;20511;-57
2023/08/02 09:03:45;;;;;;;8.68;1.88;;;18.20;99.90;;;;;;5030453;28;20030;-58
2023/08/02 09:06:15;;;;;;;12.23;2.15;;;18.20;99.90;;;;;;5021001;28;20052;-58
2023/08/02 09:08:44;;;;;;;4.70;1.50;;;18.20;99.90;;;;;;5030061;28;20048;-58
2023/08/02 09:11:11;;;;;;;2.92;1.42;;;18.20;99.90;;;;;;5033452;28;20064;-59
2023/08/02 09:13:36;;;;;;;4.05;1.60;;;18.10;99.90;;;;;;5027242;28;20056;-59
2023/08/02 09:16:16;;;;;;;1.92;0.95;;;18.10;99.90;;;;;;5028758;28;20021;-59
2023/08/02 09:18:42;;;;;;;7.43;1.40;;;18.20;99.90;;;;;;5033663;28;20063;-59
2023/08/02 09:21:12;;;;;;;2.60;0.90;;;18.20;99.90;;;;;;5030909;28;20112;-59
2023/08/02 09:23:37;;;;;;;1.45;0.85;;;18.20;99.90;;;;;;5025628;28;20026;-58
2023/08/02 09:26:20;;;;;;;4.22;1.40;;;18.20;99.90;;;;;;5026755;28;20068;-58
2023/08/02 09:29:04;;;;;;;1.70;0.73;;;18.30;99.90;;;;;;5037957;28;20029;-58
2023/08/02 09:31:32;;;;;;;0.80;0.70;;;18.30;99.90;;;;;;5026670;28;20109;-59
2023/08/02 09:33:58;;;;;;;1.92;1.20;;;18.50;99.90;;;;;;5025239;28;20048;-59
2023/08/02 09:36:28;;;;;;;4.07;0.90;;;18.60;99.90;;;;;;5030701;28;20033;-58
2023/08/02 09:39:18;;;;;;;3.42;1.02;;;18.70;99.90;;;;;;5031614;28;20029;-60
2023/08/02 09:41:44;;;;;;;3.60;1.35;;;18.90;99.90;;;;;;5028348;28;20035;-59
2023/08/02 09:44:22;;;;;;;4.95;1.58;;;18.90;99.90;;;;;;5029278;28;20037;-59
2023/08/02 09:46:47;;;;;;;4.47;1.83;;;19.10;99.90;;;;;;5030698;28;20037;-60
2023/08/02 09:49:20;;;;;;;95.45;10.63;;;19.20;99.90;;;;;;5028751;28;20040;-58
2023/08/02 09:51:46;;;;;;;5.88;1.15;;;19.20;99.90;;;;;;5025222;28;20497;-59
2023/08/02 09:54:15;;;;;;;2.88;1.10;;;19.20;99.90;;;;;;5032726;28;20033;-59
2023/08/02 09:56:41;;;;;;;3.72;0.73;;;19.20;99.90;;;;;;5035112;28;20032;-59
2023/08/02 09:59:08;;;;;;;1.40;0.90;;;19.20;99.90;;;;;;5034861;28;20049;-58
2023/08/02 10:01:35;;;;;;;1.70;1.00;;;19.10;99.90;;;;;;5029216;28;20026;-58
2023/08/02 10:04:06;;;;;;;1.67;0.82;;;19.10;99.90;;;;;;5034378;28;20029;-57
2023/08/02 10:06:37;;;;;;;22.60;2.90;;;19.10;99.90;;;;;;5033614;28;20621;-57
2023/08/02 10:09:07;;;;;;;3.40;1.00;;;19.10;99.90;;;;;;5027301;28;20064;-56
2023/08/02 10:11:52;;;;;;;44.67;4.38;;;19.20;99.90;;;;;;5030245;28;20519;-56
2023/08/02 10:14:19;;;;;;;2.53;1.13;;;19.30;99.90;;;;;;5029966;28;20091;-59
2023/08/02 10:16:45;;;;;;;1.88;0.95;;;19.40;99.90;;;;;;5031731;28;20022;-58
2023/08/02 10:19:17;;;;;;;1.65;0.90;;;19.50;99.90;;;;;;5031822;28;20040;-58
2023/08/02 10:21:43;;;;;;;1.67;0.90;;;19.60;99.90;;;;;;5031527;28;20014;-58
2023/08/02 10:24:12;;;;;;;3.83;1.23;;;19.80;99.90;;;;;;5028112;28;20424;-58
2023/08/02 10:26:38;;;;;;;2.80;1.38;;;20.00;99.90;;;;;;5033938;28;20418;-59
2023/08/02 10:29:04;;;;;;;4.15;1.30;;;20.30;99.90;;;;;;5040801;28;20055;-60
2023/08/02 10:31:30;;;;;;;3.42;0.90;;;20.60;99.90;;;;;;5031475;28;20136;-57
2023/08/02 10:33:56;;;;;;;2.05;0.70;;;20.80;99.90;;;;;;5037150;28;20112;-58
2023/08/02 10:36:23;;;;;;;6.32;0.70;;;20.90;99.90;;;;;;5030096;28;20152;-58
2023/08/02 10:38:52;;;;;;;1.52;0.70;;;21.00;99.90;;;;;;5027717;28;20432;-59
2023/08/02 10:41:27;;;;;;;0.93;0.65;;;21.00;99.90;;;;;;5026309;28;20036;-57
2023/08/02 10:43:53;;;;;;;4.15;0.90;;;20.90;99.90;;;;;;5033565;28;20400;-58
2023/08/02 10:46:29;;;;;;;2.22;0.52;;;20.90;99.90;;;;;;5028997;28;20040;-59
2023/08/02 10:49:15;;;;;;;1.48;0.63;;;21.00;99.90;;;;;;5038071;28;20017;-59
2023/08/02 10:51:42;;;;;;;3.15;0.68;;;20.90;99.90;;;;;;5027168;28;20118;-57
2023/08/02 10:54:22;;;;;;;4.95;0.63;;;20.90;99.90;;;;;;5039695;28;20117;-58
2023/08/02 10:56:51;;;;;;;4.25;1.00;;;20.90;99.90;;;;;;5031353;28;20022;-56
2023/08/02 10:59:40;;;;;;;4.95;0.60;;;20.90;99.90;;;;;;5027987;28;20070;-53
2023/08/02 11:02:09;;;;;;;2.28;0.68;;;20.90;99.90;;;;;;5027081;28;20052;-58
2023/08/02 11:04:37;;;;;;;0.82;0.50;;;20.90;99.90;;;;;;5034045;28;20029;-57
2023/08/02 11:07:12;;;;;;;5.07;0.60;;;20.80;99.90;;;;;;5027870;28;20022;-57
2023/08/02 11:09:39;;;;;;;1.58;0.63;;;21.10;99.90;;;;;;5032403;28;20106;-58
2023/08/02 11:12:14;;;;;;;3.20;0.60;;;21.30;99.90;;;;;;5027127;28;20038;-59
2023/08/02 11:14:44;;;;;;;0.82;0.60;;;21.40;99.90;;;;;;5033418;28;20029;-59
2023/08/02 11:17:11;;;;;;;1.13;0.70;;;21.30;99.90;;;;;;5032286;28;20051;-59
2023/08/02 11:19:37;;;;;;;2.17;1.27;;;21.20;99.90;;;;;;5031442;28;20500;-58
2023/08/02 11:22:03;;;;;;;2.25;1.13;;;21.00;99.90;;;;;;5035694;28;20037;-59
2023/08/02 11:24:40;;;;;;;1.48;0.88;;;20.90;99.90;;;;;;5032965;28;20056;-59
2023/08/02 11:27:05;;;;;;;1.25;0.70;;;20.90;99.90;;;;;;5036005;28;20140;-58
2023/08/02 11:29:31;;;;;;;2.63;1.00;;;20.90;99.90;;;;;;5033108;28;20116;-58
2023/08/02 11:32:02;;;;;;;3.17;0.80;;;21.00;99.90;;;;;;5030142;28;20060;-58
2023/08/02 11:34:28;;;;;;;8.50;1.20;;;21.20;99.90;;;;;;5035170;28;20029;-59
2023/08/02 11:36:55;;;;;;;1.15;0.80;;;21.50;99.90;;;;;;5035720;28;20021;-57
2023/08/02 11:39:20;;;;;;;4.40;1.13;;;21.70;99.90;;;;;;5035666;28;20404;-57
2023/08/02 11:42:02;;;;;;;3.15;0.73;;;22.00;99.90;;;;;;5034787;28;20095;-58
2023/08/02 11:44:28;;;;;;;1.85;0.25;;;22.20;99.90;;;;;;5037003;28;20526;-59
2023/08/02 11:46:55;;;;;;;0.90;0.30;;;22.30;99.90;;;;;;5031078;28;20041;-59
2023/08/02 11:49:21;;;;;;;0.75;0.40;;;22.40;99.90;;;;;;5033331;28;20048;-59
2023/08/02 11:51:47;;;;;;;0.73;0.20;;;22.20;99.90;;;;;;5038319;28;20075;-57
2023/08/02 11:54:14;;;;;;;1.35;0.50;;;22.20;99.90;;;;;;5034037;28;20029;-60
2023/08/02 11:56:39;;;;;;;2.28;0.50;;;22.20;99.90;;;;;;5034706;28;20053;-58
2023/08/02 11:59:10;;;;;;;7.40;0.55;;;22.40;99.90;;;;;;5036930;28;20049;-57
2023/08/02 12:01:38;;;;;;;3.35;0.68;;;23.00;99.90;;;;;;5035985;28;20029;-58
2023/08/02 12:04:05;;;;;;;6.78;0.60;;;23.40;99.90;;;;;;5037396;28;20431;-59
2023/08/02 12:06:51;;;;;;;1.75;0.93;;;23.90;99.90;;;;;;5029879;28;20216;-57
2023/08/02 12:09:18;;;;;;;0.73;0.73;;;24.20;99.90;;;;;;5033700;28;20029;-58
2023/08/02 12:11:45;;;;;;;0.60;0.50;;;24.10;99.90;;;;;;5032120;28;20420;-58
2023/08/02 12:14:11;;;;;;;0.65;0.50;;;24.00;99.90;;;;;;5029414;28;20128;-56
2023/08/02 12:16:41;;;;;;;2.75;0.50;;;24.00;99.90;;;;;;5035996;28;20572;-58
2023/08/02 12:19:08;;;;;;;0.40;0.40;;;23.70;99.90;;;;;;5036646;28;20026;-57
2023/08/02 12:21:33;;;;;;;0.80;0.60;;;23.60;99.90;;;;;;5037151;28;20108;-56
2023/08/02 12:23:59;;;;;;;2.40;0.60;;;23.50;99.90;;;;;;5033065;28;20096;-54
2023/08/02 12:26:28;;;;;;;0.50;0.40;;;23.50;99.90;;;;;;5031904;28;20029;-57
2023/08/02 12:28:54;;;;;;;1.05;0.50;;;23.40;99.90;;;;;;5033437;28;20033;-57
2023/08/02 12:31:19;;;;;;;0.75;0.40;;;23.50;99.90;;;;;;5035763;28;20029;-54
2023/08/02 12:33:45;;;;;;;0.70;0.50;;;23.70;99.90;;;;;;5040360;28;20034;-58
2023/08/02 12:36:10;;;;;;;1.60;0.52;;;23.60;99.90;;;;;;5033102;28;20032;-56
2023/08/02 12:38:36;;;;;;;0.70;0.50;;;23.70;99.90;;;;;;5035779;28;20042;-59
2023/08/02 12:41:03;;;;;;;1.75;0.60;;;23.70;99.90;;;;;;5033286;28;20507;-58